createdAt,value
2023-10-23T00:01:50.785Z,98871.78
2023-10-23T00:04:53.732Z,98860.63
2023-10-23T00:07:56.569Z,98875.44
2023-10-23T00:10:59.364Z,98875.16
2023-10-23T00:14:03.664Z,98877.34
2023-10-23T00:17:06.644Z,98866.84
2023-10-23T00:20:10.609Z,98877.88
2023-10-23T00:23:13.369Z,98877.72
2023-10-23T00:26:16.713Z,98879.22
2023-10-23T00:29:21.092Z,98878.09
2023-10-23T00:32:23.931Z,98866.31
2023-10-23T00:35:26.783Z,98863.81
2023-10-23T00:38:30.166Z,98855.66
2023-10-23T00:41:32.964Z,98867.16
2023-10-23T00:44:37.342Z,98863.47
2023-10-23T00:47:40.324Z,98852.16
2023-10-23T00:50:43.321Z,98848.34
2023-10-23T00:53:46.399Z,98839.38
2023-10-23T00:56:49.701Z,98840.34
2023-10-23T00:59:54.042Z,98830.53
2023-10-23T01:02:56.909Z,98818.91
2023-10-23T01:06:00.058Z,98818.91
2023-10-23T01:09:02.807Z,98830.53
2023-10-23T01:12:06.010Z,98823.41
2023-10-23T01:15:10.812Z,98804.75
2023-10-23T01:18:13.673Z,98808.56
2023-10-23T01:21:16.632Z,98812.88
2023-10-23T01:24:21.188Z,98804.88
2023-10-23T01:27:25.394Z,98811.75
2023-10-23T01:30:29.651Z,98802.09
2023-10-23T01:33:32.554Z,98814.41
2023-10-23T01:36:36.881Z,98818.91
2023-10-23T01:39:39.884Z,98805.59
2023-10-23T01:42:44.676Z,98811.59
2023-10-23T01:45:47.632Z,98814.53
2023-10-23T01:48:50.563Z,98811.59
2023-10-23T01:51:53.471Z,98817.75
2023-10-23T01:54:56.521Z,98818.56
2023-10-23T01:58:00.772Z,98799.94
2023-10-23T02:01:03.816Z,98787.78
2023-10-23T02:04:07.303Z,98791.28
2023-10-23T02:07:10.289Z,98783.28
2023-10-23T02:10:13.134Z,98784.13
2023-10-23T02:13:17.326Z,98793.78
2023-10-23T02:16:20.190Z,98793.09
2023-10-23T02:19:23.109Z,98781.47
2023-10-23T02:22:25.958Z,98779.63
2023-10-23T02:25:28.795Z,98776.63
2023-10-23T02:28:33.111Z,98777.47
2023-10-23T02:31:37.724Z,98777.63
2023-10-23T02:34:40.903Z,98782.13
2023-10-23T02:37:43.775Z,98776.78
2023-10-23T02:40:52.460Z,98784.13
2023-10-23T02:43:56.595Z,98783.97
2023-10-23T02:46:59.509Z,98785.13
2023-10-23T02:50:02.429Z,98766.16
2023-10-23T02:53:06.755Z,98765.97
2023-10-23T02:56:12.079Z,98760.81
2023-10-23T02:59:19.151Z,98761.47
2023-10-23T03:02:21.955Z,98764.16
2023-10-23T03:05:24.792Z,98769.47
2023-10-23T03:08:27.848Z,98771.31
2023-10-23T03:11:30.760Z,98774.81
2023-10-23T03:14:35.016Z,98778.47
2023-10-23T03:17:37.841Z,98770.47
2023-10-23T03:20:41.336Z,98769.47
2023-10-23T03:23:44.120Z,98766.16
2023-10-23T03:26:47.037Z,98772.31
2023-10-23T03:29:51.316Z,98770.47
2023-10-23T03:32:54.169Z,98761.47
2023-10-23T03:35:57.027Z,98754.66
2023-10-23T03:38:59.930Z,98756.03
2023-10-23T03:42:02.789Z,98756.03
2023-10-23T03:45:07.539Z,98759.16
2023-10-23T03:48:10.384Z,98759.97
2023-10-23T03:51:13.187Z,98764.31
2023-10-23T03:54:15.962Z,98775.81
2023-10-23T03:57:18.766Z,98771.16
2023-10-23T04:00:22.978Z,98772.31
2023-10-23T04:03:25.896Z,98784.78
2023-10-23T04:06:28.816Z,98764.16
2023-10-23T04:09:31.715Z,98775.81
2023-10-23T04:12:34.555Z,98771.31
2023-10-23T04:15:38.855Z,98769.81
2023-10-23T04:18:41.670Z,98782.13
2023-10-23T04:21:44.545Z,98797.09
2023-10-23T04:24:48.563Z,98798.09
2023-10-23T04:27:51.579Z,98785.78
2023-10-23T04:30:56.765Z,98773.13
2023-10-23T04:33:59.701Z,98760.97
2023-10-23T04:37:02.651Z,98778.47
2023-10-23T04:40:05.947Z,98770.31
2023-10-23T04:43:08.779Z,98778.16
2023-10-23T04:46:13.065Z,98784.63
2023-10-23T04:49:15.981Z,98791.47
2023-10-23T04:52:19.362Z,98783.50
2023-10-23T04:55:22.171Z,98779.16
2023-10-23T04:58:25.047Z,98782.66
2023-10-23T05:01:29.401Z,98778.16
2023-10-23T05:04:32.637Z,98767.50
2023-10-23T05:07:35.605Z,98775.63
2023-10-23T05:10:38.460Z,98777.47
2023-10-23T05:13:41.287Z,98787.16
2023-10-23T05:16:46.535Z,98792.47
2023-10-23T05:19:49.404Z,98782.50
2023-10-23T05:22:52.230Z,98790.78
2023-10-23T05:25:55.145Z,98782.50
2023-10-23T05:28:57.964Z,98777.31
2023-10-23T05:32:02.150Z,98779.00
2023-10-23T05:35:05.338Z,98779.16
2023-10-23T05:38:08.358Z,98782.50
2023-10-23T05:41:11.292Z,98768.00
2023-10-23T05:44:14.394Z,98771.03
2023-10-23T05:47:18.590Z,98765.53
2023-10-23T05:50:21.533Z,98757.34
2023-10-23T05:53:24.372Z,98761.00
2023-10-23T05:56:27.207Z,98759.84
2023-10-23T05:59:30.218Z,98760.19
2023-10-23T06:02:34.401Z,98756.53
2023-10-23T06:05:41.144Z,98752.03
2023-10-23T06:08:44.007Z,98745.88
2023-10-23T06:11:46.872Z,98740.38
2023-10-23T06:14:49.681Z,98746.88
2023-10-23T06:17:53.884Z,98736.03
2023-10-23T06:20:58.881Z,98738.72
2023-10-23T06:24:01.935Z,98737.88
2023-10-23T06:27:05.123Z,98748.53
2023-10-23T06:30:08.441Z,98752.03
2023-10-23T06:33:12.651Z,98762.50
2023-10-23T06:36:15.436Z,98762.38
2023-10-23T06:39:18.219Z,98752.84
2023-10-23T06:42:21.137Z,98754.38
2023-10-23T06:45:25.967Z,98749.34
2023-10-23T06:48:41.072Z,98735.75
2023-10-23T06:51:44.000Z,98740.38
2023-10-23T06:54:46.887Z,98740.22
2023-10-23T06:57:49.661Z,98744.56
2023-10-23T07:00:52.509Z,98754.53
2023-10-23T07:03:56.824Z,98745.56
2023-10-23T07:07:08.268Z,98741.91
2023-10-23T07:10:21.926Z,98758.38
2023-10-23T07:13:24.693Z,98750.38
2023-10-23T07:16:27.945Z,98755.06
2023-10-23T07:19:32.367Z,98757.56
2023-10-23T07:22:35.256Z,98755.72
2023-10-23T07:25:38.102Z,98753.88
2023-10-23T07:28:40.915Z,98744.22
2023-10-23T07:31:43.835Z,98746.91
2023-10-23T07:34:48.065Z,98755.72
2023-10-23T07:37:50.912Z,98751.22
2023-10-23T07:40:53.777Z,98749.25
2023-10-23T07:43:56.529Z,98744.75
2023-10-23T07:46:59.403Z,98752.75
2023-10-23T07:50:05.967Z,98743.59
2023-10-23T07:53:08.829Z,98746.78
2023-10-23T07:56:13.777Z,98738.78
2023-10-23T07:59:18.735Z,98740.59
2023-10-23T08:02:21.703Z,98741.59
2023-10-23T08:05:25.993Z,98737.25
2023-10-23T08:08:28.848Z,98739.75
2023-10-23T08:11:31.722Z,98731.75
2023-10-23T08:14:34.562Z,98732.94
2023-10-23T08:17:42.450Z,98736.97
2023-10-23T08:20:47.147Z,98735.13
2023-10-23T08:23:54.182Z,98740.59
2023-10-23T08:26:57.266Z,98734.28
2023-10-23T08:30:00.143Z,98729.94
2023-10-23T08:33:03.103Z,98730.63
2023-10-23T08:36:07.659Z,98719.97
2023-10-23T08:39:10.480Z,98721.00
2023-10-23T08:42:13.303Z,98721.16
2023-10-23T08:45:16.964Z,98714.97
2023-10-23T08:48:19.783Z,98715.97
2023-10-23T08:51:24.055Z,98721.00
2023-10-23T08:54:28.142Z,98706.84
2023-10-23T08:57:31.362Z,98711.34
2023-10-23T09:00:34.881Z,98701.34
2023-10-23T09:04:02.820Z,98713.00
2023-10-23T09:07:02.132Z,98709.31
2023-10-23T09:10:05.250Z,98706.66
2023-10-23T09:13:08.077Z,98700.16
2023-10-23T09:16:11.539Z,98691.16
2023-10-23T09:19:24.768Z,98693.00
2023-10-23T09:22:31.202Z,98698.19
2023-10-23T09:25:34.042Z,98691.03
2023-10-23T09:28:36.874Z,98681.03
2023-10-23T09:31:42.076Z,98682.03
2023-10-23T09:34:45.892Z,98668.53
2023-10-23T09:37:50.196Z,98669.38
2023-10-23T09:40:53.034Z,98667.69
2023-10-23T09:43:57.304Z,98662.53
2023-10-23T09:47:00.890Z,98656.22
2023-10-23T09:50:05.113Z,98661.72
2023-10-23T09:53:11.540Z,98653.06
2023-10-23T09:56:14.946Z,98657.53
2023-10-23T09:59:18.763Z,98650.41
2023-10-23T10:02:26.105Z,98651.53
2023-10-23T10:05:32.699Z,98644.56
2023-10-23T10:08:39.613Z,98662.38
2023-10-23T10:11:44.449Z,98658.88
2023-10-23T10:14:48.392Z,98659.41
2023-10-23T10:17:51.719Z,98656.72
2023-10-23T10:20:58.086Z,98660.06
2023-10-23T10:24:04.920Z,98652.22
2023-10-23T10:27:08.178Z,98649.06
2023-10-23T10:30:31.911Z,98634.59
2023-10-23T10:34:27.601Z,98651.72
2023-10-23T10:37:01.119Z,98639.06
2023-10-23T10:40:07.512Z,98649.56
2023-10-23T10:43:10.747Z,98632.41
2023-10-23T10:46:19.112Z,98632.25
2023-10-23T10:49:22.006Z,98626.41
2023-10-23T10:52:29.719Z,98635.75
2023-10-23T10:55:34.547Z,98638.91
2023-10-23T10:58:38.791Z,98640.09
2023-10-23T11:01:41.728Z,98636.88
2023-10-23T11:04:44.742Z,98637.75
2023-10-23T11:07:48.481Z,98646.72
2023-10-23T11:10:52.671Z,98643.22
2023-10-23T11:13:57.501Z,98645.25
2023-10-23T11:17:00.625Z,98653.06
2023-10-23T11:20:07.569Z,98655.91
2023-10-23T11:23:10.501Z,98648.72
2023-10-23T11:26:14.769Z,98647.25
2023-10-23T11:29:18.306Z,98658.75
2023-10-23T11:32:21.038Z,98657.91
2023-10-23T11:35:23.973Z,98651.41
2023-10-23T11:38:28.650Z,98655.06
2023-10-23T11:41:34.283Z,98661.75
2023-10-23T11:44:37.106Z,98662.41
2023-10-23T11:47:40.160Z,98666.09
2023-10-23T11:50:43.776Z,98673.06
2023-10-23T11:53:48.188Z,98679.09
2023-10-23T11:56:52.834Z,98676.44
2023-10-23T11:59:58.275Z,98666.09
2023-10-23T12:03:01.190Z,98673.06
2023-10-23T12:06:04.842Z,98681.06
2023-10-23T12:09:08.660Z,98664.94
2023-10-23T12:12:13.769Z,98687.09
2023-10-23T12:15:17.437Z,98673.91
2023-10-23T12:18:20.328Z,98682.22
2023-10-23T12:21:23.187Z,98674.94
2023-10-23T12:24:25.961Z,98678.44
2023-10-23T12:27:30.156Z,98683.78
2023-10-23T12:30:33.074Z,98683.44
2023-10-23T12:33:38.461Z,98686.78
2023-10-23T12:36:41.511Z,98687.44
2023-10-23T12:39:44.296Z,98693.28
2023-10-23T12:42:48.531Z,98690.25
2023-10-23T12:45:51.536Z,98707.44
2023-10-23T12:48:54.396Z,98683.53
2023-10-23T12:51:57.210Z,98698.81
2023-10-23T12:55:00.293Z,98696.41
2023-10-23T12:58:05.221Z,98706.59
2023-10-23T13:01:08.148Z,98709.25
2023-10-23T13:04:11.084Z,98711.13
2023-10-23T13:07:14.020Z,98717.59
2023-10-23T13:10:17.422Z,98716.13
2023-10-23T13:13:21.732Z,98709.78
2023-10-23T13:16:24.642Z,98711.25
2023-10-23T13:19:30.610Z,98707.75
2023-10-23T13:22:35.603Z,98714.94
2023-10-23T13:25:41.935Z,98722.94
2023-10-23T13:28:48.792Z,98726.63
2023-10-23T13:31:53.262Z,98725.63
2023-10-23T13:34:56.180Z,98726.13
2023-10-23T13:37:59.364Z,98732.97
2023-10-23T13:41:03.717Z,98736.47
2023-10-23T13:44:08.073Z,98737.78
2023-10-23T13:47:11.028Z,98742.44
2023-10-23T13:50:13.900Z,98740.78
2023-10-23T13:53:16.720Z,98752.13
2023-10-23T13:56:20.604Z,98747.63
2023-10-23T13:59:24.776Z,98750.47
2023-10-23T14:02:27.752Z,98757.47
2023-10-23T14:05:30.697Z,98766.47
2023-10-23T14:09:40.824Z,98759.63
2023-10-23T14:12:00.082Z,98750.47
2023-10-23T14:15:08.767Z,98743.47
2023-10-23T14:18:11.892Z,98757.81
2023-10-23T14:21:15.906Z,98755.78
2023-10-23T14:24:21.328Z,98752.13
2023-10-23T14:27:24.215Z,98752.13
2023-10-23T14:30:28.427Z,98758.63
2023-10-23T14:33:31.225Z,98765.47
2023-10-23T14:36:34.034Z,98764.78
2023-10-23T14:39:36.893Z,98755.78
2023-10-23T14:42:40.916Z,98752.47
2023-10-23T14:45:45.128Z,98756.97
2023-10-23T14:48:48.180Z,98761.13
2023-10-23T14:51:51.920Z,98769.13
2023-10-23T14:54:55.193Z,98767.47
2023-10-23T14:57:58.066Z,98759.63
2023-10-23T15:01:02.381Z,98770.31
2023-10-23T15:04:05.539Z,98766.81
2023-10-23T15:07:08.450Z,98775.63
2023-10-23T15:10:11.569Z,98780.97
2023-10-23T15:13:14.470Z,98777.47
2023-10-23T15:16:18.912Z,98777.47
2023-10-23T15:19:21.850Z,98784.47
2023-10-23T15:22:24.792Z,98786.47
2023-10-23T15:25:27.846Z,98790.66
2023-10-23T15:28:31.732Z,98781.16
2023-10-23T15:31:37.029Z,98783.47
2023-10-23T15:34:40.034Z,98783.81
2023-10-23T15:37:44.054Z,98793.47
2023-10-23T15:40:46.896Z,98792.47
2023-10-23T15:43:52.514Z,98800.47
2023-10-23T15:46:56.781Z,98802.31
2023-10-23T15:50:00.016Z,98791.81
2023-10-23T15:53:03.841Z,98798.66
2023-10-23T15:56:06.995Z,98798.81
2023-10-23T15:59:09.862Z,98800.97
2023-10-23T16:02:14.765Z,98807.47
2023-10-23T16:05:17.724Z,98799.66
2023-10-23T16:08:20.568Z,98794.63
2023-10-23T16:11:23.358Z,98793.13
2023-10-23T16:14:26.661Z,98801.50
2023-10-23T16:17:30.825Z,98795.16
2023-10-23T16:20:34.706Z,98786.97
2023-10-23T16:23:37.504Z,98783.81
2023-10-23T16:26:40.374Z,98788.81
2023-10-23T16:29:43.157Z,98778.31
2023-10-23T16:32:47.398Z,98784.16
2023-10-23T16:35:52.978Z,98783.34
2023-10-23T16:38:56.201Z,98781.81
2023-10-23T16:41:59.045Z,98777.47
2023-10-23T16:45:02.422Z,98771.97
2023-10-23T16:48:07.072Z,98768.28
2023-10-23T16:51:09.931Z,98763.97
2023-10-23T16:54:14.075Z,98776.31
2023-10-23T16:57:16.853Z,98766.50
2023-10-23T17:00:19.675Z,98762.47
2023-10-23T17:03:26.222Z,98760.81
2023-10-23T17:06:29.238Z,98751.47
2023-10-23T17:09:32.319Z,98767.50
2023-10-23T17:12:35.381Z,98763.47
2023-10-23T17:15:42.567Z,98755.47
2023-10-23T17:18:47.472Z,98755.66
2023-10-23T17:21:50.306Z,98748.66
2023-10-23T17:24:53.109Z,98756.47
2023-10-23T17:27:55.984Z,98753.81
2023-10-23T17:31:00.475Z,98749.31
2023-10-23T17:34:05.136Z,98754.13
2023-10-23T17:37:08.114Z,98758.13
2023-10-23T17:40:12.580Z,98756.47
2023-10-23T17:46:37.261Z,98759.97
2023-10-23T17:49:41.801Z,98766.81
2023-10-23T17:52:45.079Z,98767.81
2023-10-23T17:55:48.073Z,98762.28
2023-10-23T17:58:55.546Z,98755.31
2023-10-23T18:01:58.429Z,98759.50
2023-10-23T18:05:02.748Z,98753.63
2023-10-23T18:08:05.744Z,98762.16
2023-10-23T18:11:09.634Z,98756.47
2023-10-23T18:14:13.434Z,98760.47
2023-10-23T18:17:16.325Z,98768.16
2023-10-23T18:20:20.616Z,98763.47
2023-10-23T18:23:23.517Z,98768.31
2023-10-23T18:26:26.716Z,98763.81
2023-10-23T18:29:30.810Z,98769.16
2023-10-23T18:32:33.644Z,98770.00
2023-10-23T18:35:38.369Z,98770.81
2023-10-23T18:38:42.591Z,98769.81
2023-10-23T18:41:45.529Z,98767.97
2023-10-23T18:44:48.351Z,98770.31
2023-10-23T18:47:51.269Z,98763.16
2023-10-23T18:51:01.997Z,98760.63
2023-10-23T18:54:04.998Z,98760.81
2023-10-23T18:57:07.809Z,98773.16
2023-10-23T19:00:11.162Z,98772.50
2023-10-23T19:03:14.050Z,98774.97
2023-10-23T19:06:18.714Z,98774.97
2023-10-23T19:09:21.520Z,98780.31
2023-10-23T19:12:24.912Z,98778.00
2023-10-23T19:15:27.795Z,98791.16
2023-10-23T19:18:31.619Z,98791.50
2023-10-23T19:21:35.974Z,98791.50
2023-10-23T19:24:38.987Z,98792.34
2023-10-23T19:27:42.020Z,98790.00
2023-10-23T19:30:47.851Z,98800.53
2023-10-23T19:33:51.021Z,98789.66
2023-10-23T19:36:55.565Z,98791.50
2023-10-23T19:39:59.368Z,98799.50
2023-10-23T19:43:08.331Z,98796.84
2023-10-23T19:46:12.066Z,98793.16
2023-10-23T19:49:15.270Z,98798.50
2023-10-23T19:52:20.178Z,98796.69
2023-10-23T19:55:42.679Z,98798.50
2023-10-23T19:58:46.047Z,98798.50
2023-10-23T20:01:48.939Z,98800.19
2023-10-23T20:04:51.907Z,98798.34
2023-10-23T20:07:56.256Z,98811.50
2023-10-23T20:10:59.210Z,98813.03
2023-10-23T20:14:02.137Z,98814.19
2023-10-23T20:17:05.281Z,98803.00
2023-10-23T20:20:09.901Z,98808.19
2023-10-23T20:23:14.614Z,98814.34
2023-10-23T20:26:17.662Z,98813.69
2023-10-23T20:29:20.584Z,98796.84
2023-10-23T20:32:23.425Z,98802.34
2023-10-23T20:35:26.393Z,98800.00
2023-10-23T20:38:30.624Z,98793.34
2023-10-23T20:41:33.537Z,98810.50
2023-10-23T20:44:36.282Z,98806.03
2023-10-23T20:47:39.373Z,98797.50
2023-10-23T20:50:42.264Z,98801.00
2023-10-23T20:53:47.008Z,98795.50
2023-10-23T20:56:49.829Z,98807.84
2023-10-23T20:59:52.617Z,98804.66
2023-10-23T21:02:55.539Z,98813.03
2023-10-23T21:06:00.418Z,98809.19
2023-10-23T21:09:05.944Z,98806.84
2023-10-23T21:12:08.986Z,98811.19
2023-10-23T21:15:12.045Z,98793.16
2023-10-23T21:18:14.841Z,98809.34
2023-10-23T21:21:17.747Z,98810.19
2023-10-23T21:24:21.914Z,98816.34
2023-10-23T21:27:24.864Z,98808.84
2023-10-23T21:30:27.659Z,98818.84
2023-10-23T21:33:30.657Z,98821.69
2023-10-23T21:36:33.454Z,98817.53
2023-10-23T21:39:37.587Z,98822.03
2023-10-23T21:42:41.254Z,98814.03
2023-10-23T21:45:44.254Z,98823.69
2023-10-23T21:48:47.011Z,98814.50
2023-10-23T21:51:50.034Z,98822.22
2023-10-23T21:54:54.633Z,98821.53
2023-10-23T21:58:06.204Z,98831.88
2023-10-23T22:01:09.640Z,98837.53
2023-10-23T22:04:12.921Z,98828.22
2023-10-23T22:07:16.085Z,98846.22
2023-10-23T22:10:20.902Z,98840.88
2023-10-23T22:13:24.058Z,98844.53
2023-10-23T22:16:26.950Z,98841.72
2023-10-23T22:19:32.953Z,98835.53
2023-10-23T22:22:35.941Z,98845.25
2023-10-23T22:25:40.393Z,98842.72
2023-10-23T22:28:43.231Z,98852.41
2023-10-23T22:31:46.461Z,98849.88
2023-10-23T22:34:49.390Z,98843.72
2023-10-23T22:38:06.532Z,98855.22
2023-10-23T22:41:13.302Z,98845.25
2023-10-23T22:44:16.057Z,98860.41
2023-10-23T22:47:18.981Z,98853.25
2023-10-23T22:50:22.298Z,98851.22
2023-10-23T22:53:25.638Z,98862.91
2023-10-23T22:56:32.596Z,98854.06
2023-10-23T22:59:35.940Z,98855.91
2023-10-23T23:02:39.156Z,98856.75
2023-10-23T23:05:42.672Z,98850.56
2023-10-23T23:08:47.535Z,98852.25
2023-10-23T23:11:52.459Z,98850.22
2023-10-23T23:14:55.655Z,98857.56
2023-10-23T23:18:00.422Z,98845.72
2023-10-23T23:21:05.181Z,98844.88
2023-10-23T23:24:08.483Z,98847.72
2023-10-23T23:27:12.682Z,98844.22
2023-10-23T23:30:16.585Z,98845.25
2023-10-23T23:33:19.450Z,98840.88
2023-10-23T23:36:22.254Z,98842.03
2023-10-23T23:39:25.043Z,98848.88
2023-10-23T23:42:29.413Z,98840.88
2023-10-23T23:45:32.260Z,98846.22
2023-10-23T23:48:35.136Z,98846.38
2023-10-23T23:51:38.018Z,98846.22
2023-10-23T23:54:40.904Z,98844.56
2023-10-23T23:57:45.165Z,98851.22
